Data for 09/07/2014

Time Sea-Level Adjusted Pressure Absolute Pressure Temperature Relative Humidity Dew Point   
(mb) (inHg) (mb) (inHg) (C) (F) (%) (C) (F)
00:05 1020 30.12 850 25.1 11.8 53.2 42 -0.5 31
00:10 1020 30.12 850 25.1 11.7 53.1 43 -0.4 31.2
00:15 1020 30.12 850 25.1 11.5 52.7 45 0 32.1
00:20 1020 30.12 850 25.1 11.1 52.1 43 -0.9 30.5
00:25 1020 30.12 850 25.1 11.8 53.3 38 -2.1 28.2
00:30 1020 30.12 850 25.1 12.4 54.4 37 -2 28.5
00:35 1020 30.12 850 25.1 12.5 54.4 38 -1.6 29.2
00:40 1020 30.12 850 25.1 12.2 54 38 -1.4 29.4
00:45 1020 30.12 850 25.1 12.1 53.7 38 -1.7 29
00:50 1020 30.12 849 25.07 11.9 53.4 42 -0.4 31.3
00:55 1020 30.12 849 25.07 11 51.7 47 0.2 32.3
01:00 1020 30.12 849 25.07 10.3 50.5 48 -0.3 31.5
01:05 1020 30.12 849 25.07 10.1 50.3 46 -1 30.2
01:10 1020 30.12 849 25.07 10.5 50.8 44 -1.3 29.7
01:15 1020 30.12 849 25.07 11.2 52.2 40 -1.9 28.6
01:20 1020 30.12 849 25.07 11.4 52.6 41 -1.3 29.6
01:25 1020 30.12 849 25.07 11.4 52.4 42 -1.1 30
01:30 1020 30.12 849 25.07 11.3 52.4 41 -1.3 29.7
01:35 1020 30.12 849 25.07 11.4 52.5 41 -1.3 29.7
01:40 1020 30.12 849 25.07 11 51.8 43 -1 30.2
01:45 1020 30.12 849 25.07 10.7 51.2 43 -1.5 29.4
01:50 1020 30.12 849 25.07 10.7 51.3 45 -0.7 30.7
01:55 1020 30.12 849 25.07 10.1 50.2 45 -1.1 30
02:00 1020 30.12 849 25.07 10.2 50.4 45 -1 30.1
02:05 1020 30.12 849 25.07 10.3 50.6 43 -1.6 29.2
02:10 1020 30.12 849 25.07 10.5 50.9 43 -1.6 29.2
02:15 1020 30.12 849 25.07 10.8 51.4 42 -1.5 29.2
02:20 1020 30.12 849 25.07 10.9 51.6 43 -1.1 29.9
02:25 1020 30.12 849 25.07 11.4 52.6 40 -1.6 29.1
02:30 1020 30.12 849 25.07 11.5 52.7 41 -1.1 29.9
02:35 1020 30.12 849 25.07 11.5 52.7 41 -1.3 29.6
02:40 1020 30.12 849 25.07 11.4 52.4 43 -0.9 30.4
02:45 1020 30.12 849 25.07 10.8 51.5 45 -0.7 30.8
02:50 1019 30.09 849 25.07 9.9 49.8 49 -0.2 31.7
02:55 1019 30.09 849 25.07 9.3 48.7 49 -0.7 30.7
03:00 1019 30.09 849 25.07 9.5 49.2 46 -1.4 29.5
03:05 1019 30.09 849 25.07 9.9 49.9 45 -1.5 29.4
03:10 1019 30.09 849 25.07 10.4 50.7 41 -2.1 28.1
03:15 1019 30.09 849 25.07 11.2 52.2 41 -1.4 29.4
03:20 1019 30.09 849 25.07 11.1 52 40 -1.9 28.6
03:25 1019 30.09 849 25.07 11.4 52.5 39 -2.1 28.2
03:30 1019 30.09 849 25.07 11.3 52.4 46 0.1 32.1
03:35 1019 30.09 849 25.07 9.6 49.3 50 -0.2 31.6
03:40 1019 30.09 849 25.07 9.3 48.7 48 -1.3 29.7
03:45 1019 30.09 849 25.07 9.5 49.1 49 -0.7 30.8
03:50 1019 30.09 849 25.07 9.2 48.6 51 -0.3 31.4
03:55 1019 30.09 848 25.04 8.5 47.4 53 -0.5 31
04:00 1019 30.09 848 25.04 8.5 47.3 52 -0.7 30.7
04:05 1019 30.09 848 25.04 8.6 47.4 52 -0.6 30.9
04:10 1019 30.09 849 25.07 8.5 47.2 52 -0.9 30.5
04:15 1019 30.09 849 25.07 8.9 48 47 -1.6 29
04:20 1019 30.09 849 25.07 9.8 49.6 45 -1.4 29.4
04:25 1019 30.09 848 25.04 10.2 50.4 42 -2.2 28
04:30 1019 30.09 848 25.04 10.8 51.4 42 -1.7 29
04:35 1019 30.09 848 25.04 10.2 50.4 44 -1.4 29.6
04:40 1019 30.09 848 25.04 9.7 49.5 45 -1.5 29.4
04:45 1019 30.09 848 25.04 9.7 49.4 45 -1.6 29.2
04:50 1019 30.09 848 25.04 9.8 49.6 46 -1.3 29.7
04:55 1019 30.09 848 25.04 9.7 49.4 46 -1.2 29.8
05:00 1019 30.09 848 25.04 9.4 48.9 51 -0.3 31.4
05:05 1019 30.09 848 25.04 8.6 47.6 54 -0.2 31.6
05:10 1019 30.09 848 25.04 8.2 46.8 52 -0.9 30.4
05:15 1019 30.09 848 25.04 9 48.3 47 -1.7 28.9
05:20 1019 30.09 848 25.04 9.3 48.7 48 -1.2 29.9
05:25 1019 30.09 848 25.04 9.2 48.6 49 -1 30.3
05:30 1019 30.09 848 25.04 8.8 47.8 52 -0.5 31.2
05:35 1019 30.09 848 25.04 8.1 46.6 52 -1.1 29.9
05:40 1019 30.09 848 25.04 8.8 47.8 48 -1.7 28.9
05:45 1019 30.09 848 25.04 9 48.1 52 -0.4 31.3
05:50 1019 30.09 848 25.04 8.7 47.6 47 -1.9 28.7
05:55 1019 30.09 848 25.04 9.5 49.1 48 -1 30.1
06:00 1019 30.09 848 25.04 9.2 48.6 49 -1 30.2
06:05 1019 30.09 848 25.04 9 48.2 49 -1 30.2
06:10 1019 30.09 848 25.04 8.8 47.9 50 -1 30.1
06:15 1019 30.09 848 25.04 8.9 48.1 48 -1.3 29.6
06:20 1019 30.09 848 25.04 9.3 48.8 47 -1.4 29.4
06:25 1019 30.09 848 25.04 9.5 49 48 -1.1 30.1
06:30 1019 30.09 848 25.04 9.4 49 49 -0.7 30.8
06:35 1019 30.09 848 25.04 9.2 48.5 49 -0.9 30.3
06:40 1019 30.09 848 25.04 9.3 48.8 49 -0.9 30.4
06:45 1019 30.09 848 25.04 9.4 49 48 -1.1 30.1
06:50 1019 30.09 848 25.04 9.7 49.5 49 -0.6 31
06:55 1019 30.09 848 25.04 10 50.1 47 -0.6 30.9
07:00 1019 30.09 848 25.04 10.1 50.1 47 -0.6 30.9
07:05 1019 30.09 848 25.04 10.1 50.1 48 -0.5 31
07:10 1019 30.09 848 25.04 10.3 50.5 47 -0.6 30.9
07:15 1019 30.09 848 25.04 10.4 50.6 48 -0 32
07:20 1019 30.09 848 25.04 10.5 50.9 48 0 32
07:25 1019 30.09 848 25.04 10.9 51.6 47 -0 31.9
07:30 1019 30.09 848 25.04 11.5 52.6 47 0.6 33.2
07:35 1019 30.09 848 25.04 12 53.6 45 0.5 32.9
07:40 1019 30.09 848 25.04 12.3 54.2 44 0.3 32.6
07:45 1019 30.09 848 25.04 12.7 54.9 45 1.1 34
07:50 1019 30.09 848 25.04 13.3 56 40 0.1 32.3
07:55 1019 30.09 848 25.04 13.6 56.5 40 0.5 32.9
08:00 1019 30.09 848 25.04 14.2 57.5 40 0.8 33.5
08:05 1019 30.09 848 25.04 14.4 57.9 39 0.6 33
08:10 1019 30.09 848 25.04 15.1 59.2 38 0.9 33.6
08:15 1019 30.09 848 25.04 15.9 60.6 35 0.5 32.9
08:20 1019 30.09 848 25.04 15.8 60.4 35 0.3 32.6
08:25 1019 30.09 848 25.04 16.6 61.8 32 0 32.1
08:30 1019 30.09 848 25.04 16.9 62.4 31 -0.2 31.7
08:35 1019 30.09 848 25.04 17.1 62.7 31 -0 32
08:40 1019 30.09 848 25.04 17.1 62.8 32 0.3 32.6
08:45 1019 30.09 848 25.04 16.9 62.3 32 0.2 32.4
08:50 1019 30.09 848 25.04 17.1 62.7 33 0.6 33.1
08:55 1019 30.09 848 25.04 16.4 61.6 33 0.3 32.5
09:00 1019 30.09 848 25.04 16.3 61.4 34 0.4 32.6
09:05 1019 30.09 848 25.04 17.1 62.9 32 0.2 32.4
09:10 1019 30.09 848 25.04 17.8 64.1 28 -0.9 30.4
09:15 1019 30.09 848 25.04 17.2 62.9 30 -0.3 31.4
09:20 1019 30.09 848 25.04 17.4 63.3 30 -0.4 31.2
09:25 1019 30.09 848 25.04 18.3 64.9 28 -0.5 31.2
09:30 1019 30.09 848 25.04 19.1 66.4 27 -0.2 31.6
09:35 1019 30.09 848 25.04 19.7 67.5 27 0.6 33.1
09:40 1019 30.09 848 25.04 19.7 67.4 27 0.1 32.1
09:45 1019 30.09 848 25.04 19.8 67.6 28 0.8 33.4
09:50 1019 30.09 848 25.04 19.1 66.3 29 1 33.8
09:55 1019 30.09 848 25.04 18.9 65.9 31 1.5 34.7
10:00 1019 30.09 848 25.04 18.6 65.4 30 0.7 33.3
10:05 1019 30.09 848 25.04 19.1 66.4 31 1.6 34.8
10:10 1019 30.09 848 25.04 18.8 65.9 31 1.3 34.3
10:15 1019 30.09 848 25.04 19.2 66.5 31 1.7 35.1
10:20 1019 30.09 848 25.04 19.6 67.3 29 1.2 34.2
10:25 1019 30.09 848 25.04 20.1 68.2 26 0.4 32.7
10:30 1019 30.09 848 25.04 20.9 69.7 25 0.5 32.8
10:35 1019 30.09 848 25.04 21.3 70.4 26 1.4 34.6
10:40 1019 30.09 848 25.04 20.9 69.6 26 0.6 33.1
10:45 1019 30.09 848 25.04 20.3 68.5 25 -0.2 31.7
10:50 1019 30.09 848 25.04 21.1 70 24 -0.3 31.4
10:55 1019 30.09 848 25.04 20.6 69.1 25 -0 31.9
11:00 1019 30.09 848 25.04 21.1 70 23 -0.5 31
11:05 1019 30.09 848 25.04 21.7 71 23 0 32
11:10 1019 30.09 848 25.04 21.7 71.1 24 0.3 32.6
11:15 1019 30.09 848 25.04 21.7 71.1 24 0.3 32.5
11:20 1018 30.06 848 25.04 21.4 70.6 24 -0 31.9
11:25 1018 30.06 848 25.04 22.4 72.3 23 0.6 33
11:30 1018 30.06 848 25.04 22.7 72.9 23 0.6 33
11:35 1018 30.06 847 25.01 23.2 73.7 21 0.1 32.2
11:40 1018 30.06 847 25.01 23 73.4 23 0.7 33.2
11:45 1018 30.06 847 25.01 23.4 74 21 0.3 32.5
11:50 1018 30.06 847 25.01 24.3 75.8 20 0.4 32.8
11:55 1018 30.06 847 25.01 24.4 76 20 0.6 33
12:00 1018 30.06 847 25.01 24 75.2 22 1 33.8
12:05 1018 30.06 847 25.01 23.4 74.1 23 1.1 33.9
12:10 1018 30.06 847 25.01 23.1 73.6 22 0.6 33.1
12:15 1018 30.06 847 25.01 23.6 74.5 22 0.7 33.2
12:20 1018 30.06 847 25.01 23.9 75.1 21 0.5 33
12:25 1018 30.06 847 25.01 25.2 77.3 17 -1.7 28.9
12:30 1018 30.06 847 25.01 25.3 77.6 18 -0.3 31.5
12:35 1018 30.06 847 25.01 25.3 77.6 18 -0.1 31.8
12:40 1018 30.06 847 25.01 25.6 78 17 -0.8 30.6
12:45 1018 30.06 847 25.01 25.6 78.1 16 -1.5 29.3
12:50 1018 30.06 847 25.01 26.1 78.9 17 -0.5 31.2
12:55 1017 30.03 847 25.01 26 78.8 17 -0.7 30.8
13:00 1017 30.03 847 25.01 26.1 79.1 18 -0.1 31.8
13:05 1017 30.03 847 25.01 26.2 79.1 15 -2.2 28.1
13:10 1017 30.03 846 24.98 26.4 79.6 15 -2 28.5
13:15 1017 30.03 846 24.98 26.9 80.5 14 -2.2 28
13:20 1017 30.03 846 24.98 27 80.7 15 -1.9 28.6
13:25 1017 30.03 846 24.98 26.7 80.1 15 -2 28.3
13:30 1017 30.03 846 24.98 26.7 80.1 14 -2.2 28
13:35 1017 30.03 846 24.98 26.7 80.1 14 -2.6 27.3
13:40 1017 30.03 846 24.98 27.1 80.9 14 -2.7 27.2
13:45 1017 30.03 846 24.98 27 80.6 13 -3 26.7
13:50 1017 30.03 846 24.98 26.8 80.2 14 -3.1 26.4
13:55 1017 30.03 846 24.98 27 80.6 12 -4.3 24.3
14:00 1017 30.03 846 24.98 26.8 80.3 13 -3.6 25.5
14:05 1017 30.03 846 24.98 27.3 81.1 13 -3.7 25.4
14:10 1017 30.03 846 24.98 26.9 80.4 13 -3.6 25.4
14:15 1016 30 846 24.98 26.7 80.1 13 -3.5 25.6
14:20 1016 30 846 24.98 27.2 80.9 13 -3.7 25.3
14:25 1016 30 845 24.95 27 80.6 12 -4.2 24.5
14:30 1016 30 845 24.95 27.3 81.1 13 -3.6 25.6
14:35 1016 30 845 24.95 27.6 81.7 12 -4 24.7
14:40 1016 30 845 24.95 27.1 80.7 12 -4.4 24.1
14:45 1016 30 845 24.95 27.1 80.8 12 -4.4 24.1
14:50 1016 30 845 24.95 27.1 80.8 13 -3.8 25.1
14:55 1016 30 845 24.95 27.2 81 12 -4.2 24.4
15:00 1016 30 845 24.95 27.2 81 11 -6.1 21
15:05 1016 30 845 24.95 27.3 81.1 11 -5 22.9
15:10 1016 30 845 24.95 27.6 81.6 11 -4.8 23.4
15:15 1016 30 845 24.95 27.7 81.8 11 -5.5 22.1
15:20 1016 30 845 24.95 27.7 81.8 11 -5.4 22.3
15:25 1016 30 845 24.95 27.5 81.5 11 -5.7 21.7
15:30 1016 30 845 24.95 27.5 81.4 10 -6.2 20.8
15:35 1016 30 845 24.95 27 80.7 11 -5.8 21.6
15:40 1016 30 845 24.95 27.2 80.9 11 -5.4 22.3
15:45 1016 30 845 24.95 27.4 81.3 11 -5.9 21.4
15:50 1016 30 845 24.95 27.3 81.1 11 -6.1 21.1
15:55 1016 30 845 24.95 27.1 80.8 11 -6.2 20.9
16:00 1016 30 845 24.95 27.1 80.9 11 -6.1 21.1
16:05 1016 30 845 24.95 27.2 81 10 -6.2 20.9
16:10 1016 30 845 24.95 27.4 81.4 11 -5.6 21.9
16:15 1016 30 845 24.95 27.5 81.6 11 -5.2 22.7
16:20 1016 30 845 24.95 27.4 81.2 11 -5.1 22.8
16:25 1016 30 845 24.95 27.3 81.2 11 -5.2 22.6
16:30 1016 30 845 24.95 27.1 80.7 12 -4.7 23.5
16:35 1016 30 845 24.95 27.1 80.9 11 -5.2 22.6
16:40 1016 30 845 24.95 27 80.7 12 -5 23
16:45 1015 29.97 845 24.95 27 80.6 11 -5.5 22.2
16:50 1015 29.97 845 24.95 26.9 80.5 12 -5.2 22.7
16:55 1015 29.97 845 24.95 26.8 80.3 12 -4.5 23.9
17:00 1015 29.97 845 24.95 26.7 80.1 12 -4.7 23.5
17:05 1015 29.97 845 24.95 26.6 79.8 13 -4.1 24.6
17:10 1015 29.97 845 24.95 26.3 79.3 12 -4.6 23.7
17:15 1015 29.97 845 24.95 25.9 78.6 13 -4.9 23.2
17:20 1015 29.97 845 24.95 25.6 78 14 -3.9 24.9
17:25 1015 29.97 845 24.95 25.5 77.9 13 -4.5 24
17:30 1015 29.97 844 24.92 25.4 77.7 14 -4 24.9
17:35 1015 29.97 844 24.92 25.3 77.6 14 -4.3 24.3
17:40 1015 29.97 844 24.92 25.2 77.4 13 -4.7 23.6
17:45 1015 29.97 844 24.92 25.2 77.3 14 -4.2 24.4
17:50 1015 29.97 844 24.92 24.9 76.8 14 -4 24.8
17:55 1015 29.97 844 24.92 24.7 76.4 15 -3.7 25.3
18:00 1015 29.97 844 24.92 24.4 76 15 -3.5 25.7
18:05 1015 29.97 844 24.92 24.2 75.6 15 -3.5 25.7
18:10 1015 29.97 844 24.92 24 75.2 18 -1.5 29.3
18:15 1015 29.97 844 24.92 23.7 74.7 18 -1.9 28.5
18:20 1015 29.97 844 24.92 23.5 74.2 18 -2.1 28.2
18:25 1015 29.97 844 24.92 23.2 73.7 19 -1.3 29.6
18:30 1015 29.97 844 24.92 22.9 73.2 20 -1.4 29.5
18:35 1015 29.97 844 24.92 22.7 72.8 19 -1.7 28.9
18:40 1015 29.97 844 24.92 22.5 72.5 20 -1.3 29.7
18:45 1015 29.97 844 24.92 22.4 72.3 22 -0.4 31.3
18:50 1015 29.97 844 24.92 21.3 70.4 24 0.3 32.5
18:55 1015 29.97 844 24.92 20.3 68.6 29 1.9 35.4
19:00 1015 29.97 844 24.92 19.4 67 31 1.8 35.3
19:05 1015 29.97 844 24.92 18.9 66.1 32 2.1 35.7
19:10 1015 29.97 845 24.95 18.9 66 29 0.8 33.5
19:15 1015 29.97 845 24.95 18.7 65.6 30 1.1 33.9
19:20 1015 29.97 845 24.95 18.3 65 30 0.7 33.3
19:25 1015 29.97 845 24.95 18.1 64.6 30 0.2 32.3
19:30 1015 29.97 845 24.95 18 64.4 30 0.2 32.3
19:35 1015 29.97 845 24.95 17.6 63.7 30 0.1 32.2
19:40 1015 29.97 845 24.95 17.3 63.1 32 0.6 33.1
19:45 1016 30 845 24.95 17.2 62.9 31 0.1 32.2
19:50 1016 30 845 24.95 17 62.6 31 0 32.1
19:55 1016 30 845 24.95 17 62.6 31 -0.3 31.4
20:00 1016 30 845 24.95 16.9 62.5 30 -0.4 31.3
20:05 1016 30 845 24.95 16.8 62.3 31 -0.5 31.2
20:10 1016 30 845 24.95 16.8 62.3 32 -0 32
20:15 1016 30 845 24.95 16.8 62.3 30 -0.5 31
20:20 1016 30 845 24.95 16.5 61.6 31 -0.6 30.9
20:25 1016 30 845 24.95 16.3 61.3 31 -0.6 30.9
20:30 1016 30 845 24.95 16.1 61.1 31 -1 30.2
20:35 1016 30 845 24.95 16 60.7 31 -1 30.2
20:40 1016 30 845 24.95 15.8 60.5 31 -1.1 30.1
20:45 1016 30 845 24.95 15.8 60.4 36 0.9 33.6
20:50 1016 30 845 24.95 15.6 60 32 -0.9 30.4
20:55 1016 30 845 24.95 15.3 59.6 32 -1 30.2
21:00 1016 30 845 24.95 15.1 59.2 33 -0.8 30.5
21:05 1016 30 845 24.95 14.9 58.7 33 -1.3 29.7
21:10 1016 30 845 24.95 14.8 58.6 33 -1.1 30.1
21:15 1016 30 845 24.95 14.5 58 35 -0.9 30.4
21:20 1016 30 845 24.95 14.3 57.7 33 -1.9 28.6
21:25 1016 30 845 24.95 14.7 58.4 31 -2.2 28
21:30 1016 30 845 24.95 15.2 59.4 28 -2.9 26.8
21:35 1016 30 845 24.95 15.8 60.4 27 -3 26.6
21:40 1016 30 845 24.95 16 60.8 27 -2.8 27
21:45 1016 30 845 24.95 15.7 60.3 28 -2.4 27.7
21:50 1016 30 845 24.95 15.2 59.4 29 -2.4 27.7
21:55 1016 30 845 24.95 15 58.9 30 -2.5 27.5
22:00 1016 30 845 24.95 14.7 58.5 31 -2.2 28
22:05 1016 30 845 24.95 14.7 58.4 30 -2.7 27.2
22:10 1016 30 845 24.95 14.8 58.6 29 -3 26.6
22:15 1016 30 845 24.95 15.1 59.1 28 -3.4 25.9
22:20 1016 30 845 24.95 15.2 59.4 28 -3 26.6
22:25 1016 30 845 24.95 15.3 59.5 27 -3.5 25.7
22:30 1016 30 845 24.95 15.4 59.8 27 -3.6 25.5
22:35 1016 30 845 24.95 15.7 60.3 26 -3.4 25.8
22:40 1016 30 845 24.95 15.6 60 27 -3.2 26.2
22:45 1016 30 845 24.95 15.2 59.3 29 -2.8 26.9
22:50 1016 30 845 24.95 14.7 58.5 29 -2.9 26.7
22:55 1016 30 845 24.95 14.5 58.1 30 -3 26.6
23:00 1016 30 845 24.95 14.3 57.7 30 -2.8 27
23:05 1016 30 845 24.95 14 57.2 31 -2.8 26.9
23:10 1016 30 845 24.95 14 57.1 31 -3 26.6
23:15 1016 30 845 24.95 13.8 56.9 31 -3.2 26.3
23:20 1016 30 845 24.95 13.7 56.6 32 -2.8 27
23:25 1016 30 845 24.95 13.7 56.6 30 -3.5 25.7
23:30 1016 30 845 24.95 14.1 57.3 30 -3.3 26.1
23:35 1016 30 845 24.95 14.2 57.5 29 -3.7 25.3
23:40 1016 30 845 24.95 14.3 57.8 29 -3.5 25.8
23:45 1016 30 845 24.95 14.4 57.9 28 -3.7 25.4
23:50 1016 30 845 24.95 14.6 58.2 29 -3.4 25.9
23:55 1016 30 845 24.95 14.2 57.6 28 -3.7 25.3
24:00 1016 30 845 24.95 14.1 57.4 29 -3.7 25.4